Time;durP1;ratioP1;P1;durP2;ratioP2;P2;SDS_P1;SDS_P2;PMS_P1;PMS_P2;Temp;Humidity;BMP_temperature;BMP_pressure;BME280_temperature;BME280_humidity;BME280_pressure;Samples;Min_cycle;Max_cycle;Signal;HPM_P1;HPM_P2
2022/08/08 00:02:20;;;;;;;1.23;1.23;;;21.00;56.40;;;21.75;38.80;101031.03;4989616;28;21390;-68
2022/08/08 00:05:29;;;;;;;1.20;1.20;;;20.90;56.60;;;21.71;38.69;101020.91;4993758;28;21260;-70
2022/08/08 00:08:28;;;;;;;1.00;1.00;;;20.90;56.50;;;21.64;38.94;101026.09;5010537;28;20644;-68
2022/08/08 00:11:07;;;;;;;1.00;1.00;;;20.80;56.70;;;21.63;38.90;101027.94;4993780;28;20622;-69
2022/08/08 00:14:06;;;;;;;0.90;0.90;;;20.70;56.60;;;21.60;38.67;101030.91;4995721;28;20677;-69
2022/08/08 00:17:09;;;;;;;1.50;1.40;;;20.70;56.50;;;21.72;38.84;101034.03;5011672;28;21159;-69
2022/08/08 00:20:08;;;;;;;1.30;1.20;;;20.80;56.80;;;21.76;38.72;101030.03;4994388;28;21046;-68
2022/08/08 00:22:46;;;;;;;1.10;1.00;;;20.80;56.90;;;21.59;39.01;101031.91;5011847;28;20664;-68
2022/08/08 00:25:39;;;;;;;1.10;1.10;;;20.70;57.10;;;21.67;39.12;101033.72;4976145;28;20665;-68
2022/08/08 00:28:20;;;;;;;0.90;0.90;;;20.70;57.10;;;21.70;39.33;101032.56;5011237;28;20625;-69
2022/08/08 00:31:16;;;;;;;1.37;1.27;;;20.80;57.30;;;21.69;39.33;101036.19;4995153;28;20617;-69
2022/08/08 00:37:52;;;;;;;1.50;1.40;;;20.80;57.50;;;21.67;39.41;101035.53;5009554;28;20729;-69
2022/08/08 00:40:28;;;;;;;1.07;1.07;;;20.70;57.60;;;21.66;39.62;101033.91;4994168;28;20637;-68
2022/08/08 00:43:50;;;;;;;1.07;1.07;;;20.80;57.70;;;21.73;39.57;101040.16;5010032;28;20668;-69
2022/08/08 00:46:43;;;;;;;1.00;1.00;;;20.70;57.60;;;21.73;39.21;101041.00;5005613;28;21222;-69
2022/08/08 00:50:20;;;;;;;1.63;1.53;;;20.80;57.60;;;21.64;39.36;101042.00;4994106;28;20644;-69
2022/08/08 00:53:02;;;;;;;1.10;1.10;;;20.80;57.50;;;21.53;39.57;101034.41;5010577;28;20614;-68
2022/08/08 00:56:17;;;;;;;1.10;1.10;;;20.70;57.70;;;21.56;39.86;101039.41;5009770;28;20745;-69
2022/08/08 00:59:20;;;;;;;1.20;1.10;;;20.60;57.80;;;21.50;39.58;101029.47;5010401;28;20614;-69
2022/08/08 01:02:44;;;;;;;1.33;1.23;;;20.60;57.80;;;21.39;40.14;101032.47;5007432;28;20618;-68
2022/08/08 01:06:14;;;;;;;2.20;1.13;;;20.60;58.00;;;21.40;39.78;101040.25;5008222;28;20641;-69
2022/08/08 01:09:13;;;;;;;1.00;1.00;;;20.60;58.00;;;21.47;39.84;101038.59;5006267;28;20645;-69
2022/08/08 01:12:36;;;;;;;1.40;1.40;;;20.60;58.10;;;21.49;39.99;101035.75;5009611;28;20618;-69
2022/08/08 01:15:19;;;;;;;1.07;1.07;;;20.60;58.00;;;21.37;39.93;101031.81;4993111;28;20673;-69
2022/08/08 01:19:07;;;;;;;2.10;0.80;;;20.50;57.90;;;21.29;40.03;101032.69;4996144;28;20610;-69
2022/08/08 01:22:29;;;;;;;5.93;1.00;;;20.40;58.10;;;21.29;39.87;101038.00;4949139;28;20767;-69
2022/08/08 01:25:46;;;;;;;2.70;1.00;;;20.40;58.10;;;21.20;40.08;101039.00;4913528;29;20644;-68
2022/08/08 01:29:02;;;;;;;1.20;1.10;;;20.30;58.10;;;21.16;39.75;101037.69;5007965;28;21274;-68
2022/08/08 01:31:59;;;;;;;2.43;1.10;;;20.30;58.10;;;21.18;39.99;101033.03;5010019;28;20613;-70
2022/08/08 01:35:25;;;;;;;1.07;1.07;;;20.20;58.20;;;21.07;39.93;101030.72;5008055;28;21255;-69
2022/08/08 01:38:27;;;;;;;1.90;1.20;;;20.30;58.00;;;21.07;39.79;101032.53;4973245;28;21027;-68
2022/08/08 01:41:12;;;;;;;1.30;1.20;;;20.20;58.10;;;21.07;39.95;101021.94;4991590;28;20710;-69
2022/08/08 01:44:16;;;;;;;1.27;1.20;;;20.20;58.60;;;21.01;39.84;101034.03;5007836;28;20657;-70
2022/08/08 01:46:56;;;;;;;0.80;0.80;;;20.20;57.90;;;21.10;39.65;101034.88;5014436;28;20624;-68
2022/08/08 01:50:15;;;;;;;1.10;1.10;;;20.20;57.90;;;20.92;39.58;101035.03;5012728;28;21102;-68
2022/08/08 01:52:57;;;;;;;1.07;1.07;;;20.20;57.60;;;20.83;40.10;101041.31;4997283;28;20625;-68
2022/08/08 01:56:36;;;;;;;0.90;0.90;;;20.10;57.90;;;20.75;40.01;101034.22;5013251;28;20649;-68
2022/08/08 01:59:54;;;;;;;1.00;1.00;;;20.00;58.00;;;20.84;40.01;101032.38;5014898;28;20671;-70
2022/08/08 02:03:16;;;;;;;1.00;1.00;;;19.90;58.30;;;20.78;40.05;101043.66;5005310;28;20648;-69
2022/08/08 02:06:34;;;;;;;1.20;1.10;;;19.90;58.30;;;20.79;40.44;101045.31;5002559;28;20621;-69
2022/08/08 02:09:23;;;;;;;1.20;1.20;;;19.90;58.60;;;20.72;40.66;101049.63;5013048;28;20613;-68
2022/08/08 02:12:23;;;;;;;0.93;0.93;;;19.90;58.80;;;20.72;40.65;101052.28;5013343;28;20633;-68
2022/08/08 02:15:10;;;;;;;1.10;1.10;;;19.80;58.90;;;20.68;40.62;101048.28;5013467;28;21136;-68
2022/08/08 02:18:06;;;;;;;0.90;0.90;;;19.80;59.00;;;20.69;40.67;101050.78;5014298;28;20622;-69
2022/08/08 02:24:05;;;;;;;1.30;1.30;;;19.80;59.20;;;20.56;40.91;101052.25;4998976;28;20637;-68
2022/08/08 02:26:50;;;;;;;1.17;1.17;;;19.70;59.30;;;20.55;41.21;101050.63;5014273;28;20621;-69
2022/08/08 02:30:09;;;;;;;1.00;1.00;;;19.70;59.40;;;20.60;40.88;101057.06;5001602;28;20691;-69
2022/08/08 02:33:52;;;;;;;1.00;1.00;;;19.70;59.40;;;20.44;41.08;101056.22;4978611;28;20677;-69
2022/08/08 02:36:52;;;;;;;1.10;1.10;;;19.60;59.50;;;20.40;41.33;101054.91;5003151;28;20632;-68
2022/08/08 02:39:48;;;;;;;1.70;0.90;;;19.60;59.80;;;20.53;41.43;101050.75;5012679;28;20629;-69
2022/08/08 02:43:08;;;;;;;1.00;1.00;;;19.60;59.80;;;20.48;41.62;101058.38;5011848;28;20728;-68
2022/08/08 02:46:55;;;;;;;5.60;1.20;;;19.60;59.90;;;20.45;41.54;101056.06;5007289;28;20617;-69
2022/08/08 02:49:45;;;;;;;1.10;1.10;;;19.60;59.90;;;20.38;41.73;101067.47;4953328;28;20649;-69
2022/08/08 02:52:34;;;;;;;1.10;1.10;;;19.50;60.30;;;20.22;42.18;101056.84;5013511;28;21235;-68
2022/08/08 02:55:13;;;;;;;1.23;1.13;;;19.40;60.50;;;20.27;42.06;101054.53;5012781;28;21087;-68
2022/08/08 02:58:34;;;;;;;2.70;1.20;;;19.40;60.70;;;20.23;42.40;101059.31;5012703;28;20705;-69
2022/08/08 03:01:45;;;;;;;1.50;1.40;;;19.40;61.00;;;20.30;42.52;101059.50;5012472;28;21156;-68
2022/08/08 03:04:43;;;;;;;0.97;0.97;;;19.40;60.90;;;20.38;42.60;101064.84;5012617;28;21000;-68
2022/08/08 03:07:49;;;;;;;1.30;1.20;;;19.50;61.20;;;20.33;42.32;101056.53;5012860;28;20633;-68
2022/08/08 03:11:08;;;;;;;1.23;1.13;;;19.40;61.30;;;20.34;42.65;101058.16;5012438;28;20632;-69
2022/08/08 03:14:24;;;;;;;1.07;1.07;;;19.40;61.60;;;20.28;43.01;101061.47;5010244;28;21298;-69
2022/08/08 03:17:49;;;;;;;1.17;1.07;;;19.50;61.80;;;20.30;42.96;101064.78;5011000;28;20637;-69
2022/08/08 03:20:52;;;;;;;1.00;1.00;;;19.40;62.00;;;20.34;42.68;101058.16;4985118;28;20621;-69
2022/08/08 03:23:21;;;;;;;1.10;1.10;;;19.40;61.90;;;20.36;42.99;101070.28;5010890;28;20664;-69
2022/08/08 03:25:50;;;;;;;1.20;1.17;;;19.40;61.90;;;20.41;42.74;101072.44;4997711;28;20644;-69
2022/08/08 03:28:33;;;;;;;1.00;1.00;;;19.40;61.70;;;20.24;43.05;101060.97;5001584;28;21180;-68
2022/08/08 03:33:16;;;;;;;1.57;1.00;;;19.40;62.00;;;20.27;42.90;101065.13;4994598;28;20620;-68
2022/08/08 03:33:53;;;;;;;1.17;1.17;;;19.40;62.00;;;20.14;42.95;101066.38;5011455;28;20652;-69
2022/08/08 03:36:27;;;;;;;1.10;1.10;;;19.30;62.00;;;20.02;43.76;101062.38;5011351;28;20637;-68
2022/08/08 03:38:57;;;;;;;1.73;1.10;;;19.20;62.40;;;20.04;43.68;101059.56;5011841;28;21212;-69
2022/08/08 03:41:43;;;;;;;1.00;1.00;;;19.20;62.60;;;20.07;43.60;101070.69;5003867;28;20971;-68
2022/08/08 03:44:33;;;;;;;1.20;1.10;;;19.20;62.70;;;20.00;43.67;101067.00;4997259;28;20634;-68
2022/08/08 03:47:00;;;;;;;1.30;1.30;;;19.20;62.90;;;20.03;43.67;101069.34;5010924;28;20668;-69
2022/08/08 03:49:50;;;;;;;1.17;1.07;;;19.10;62.80;;;20.03;43.73;101063.22;4991697;28;21244;-68
2022/08/08 03:52:30;;;;;;;1.30;1.30;;;19.10;63.00;;;19.88;43.70;101070.09;4991964;28;20624;-68
2022/08/08 03:54:58;;;;;;;1.17;1.17;;;19.10;63.10;;;19.83;43.99;101065.28;4974514;28;20670;-68
2022/08/08 03:57:37;;;;;;;1.10;1.10;;;19.00;63.30;;;19.89;43.66;101062.00;4975934;28;20615;-70
2022/08/08 04:00:26;;;;;;;1.10;1.10;;;19.00;63.20;;;19.83;43.77;101067.94;4986364;28;20634;-69
2022/08/08 04:03:07;;;;;;;1.90;1.30;;;19.00;63.30;;;19.68;44.50;101074.81;5009693;28;20630;-69
2022/08/08 04:05:37;;;;;;;1.00;1.00;;;18.90;63.30;;;19.79;44.18;101071.06;5011131;28;20621;-68
2022/08/08 04:08:23;;;;;;;1.30;1.20;;;18.90;63.20;;;19.79;44.11;101079.00;5011459;28;20625;-69
2022/08/08 04:11:03;;;;;;;1.27;1.17;;;18.90;63.30;;;19.78;44.07;101075.50;5012733;28;21224;-69
2022/08/08 04:13:37;;;;;;;1.20;1.20;;;18.90;63.40;;;19.80;43.79;101072.72;5011678;28;20665;-69
2022/08/08 04:16:25;;;;;;;1.27;1.27;;;18.90;63.20;;;19.86;43.62;101078.22;4998996;28;20613;-68
2022/08/08 04:19:08;;;;;;;1.20;1.20;;;19.00;63.10;;;19.82;43.69;101081.34;5010119;28;20695;-69
2022/08/08 04:21:50;;;;;;;1.30;1.20;;;19.00;63.00;;;19.85;43.75;101087.13;5011670;28;20621;-68
2022/08/08 04:24:17;;;;;;;1.40;1.30;;;19.00;63.00;;;19.91;43.53;101086.50;5012064;28;20634;-68
2022/08/08 04:26:57;;;;;;;1.53;1.37;;;19.10;63.10;;;19.79;43.92;101092.25;5011375;28;20733;-69
2022/08/08 04:29:26;;;;;;;1.10;1.10;;;19.00;63.00;;;19.84;43.71;101092.59;5010061;28;20651;-69
2022/08/08 04:32:04;;;;;;;1.20;1.20;;;19.00;63.20;;;20.00;43.41;101090.00;5010722;28;21228;-69
2022/08/08 04:34:32;;;;;;;1.30;1.30;;;19.10;63.10;;;20.15;43.03;101099.00;5009373;28;20670;-69
2022/08/08 04:37:19;;;;;;;1.10;1.10;;;19.20;62.90;;;20.25;43.13;101099.75;4997380;28;20618;-70
2022/08/08 04:39:58;;;;;;;2.40;1.00;;;19.30;62.80;;;20.41;42.64;101109.53;5011099;28;21062;-70
2022/08/08 04:42:34;;;;;;;1.00;1.00;;;19.40;62.50;;;20.65;42.36;101106.97;5011992;28;21003;-68
2022/08/08 04:45:04;;;;;;;1.10;1.10;;;19.60;62.10;;;20.72;42.29;101108.78;4993987;28;20708;-69
2022/08/08 04:47:32;;;;;;;2.20;1.10;;;19.80;61.70;;;20.78;42.21;101109.97;4993119;28;20680;-70
2022/08/08 04:50:09;;;;;;;2.90;1.20;;;19.90;62.30;;;20.82;41.88;101113.94;5009961;28;20633;-68
2022/08/08 04:52:55;;;;;;;1.40;1.30;;;20.00;61.30;;;21.10;41.43;101123.28;5011118;28;20621;-71
2022/08/08 04:55:27;;;;;;;1.57;1.47;;;20.10;61.00;;;21.24;41.34;101124.41;5011301;28;20760;-68
2022/08/08 04:58:15;;;;;;;1.83;1.13;;;20.30;60.80;;;21.42;40.69;101130.38;5010971;28;20640;-69
2022/08/08 05:00:43;;;;;;;1.10;1.10;;;20.50;60.40;;;21.43;40.76;101135.50;5008689;28;20633;-69
2022/08/08 05:03:14;;;;;;;1.90;1.07;;;20.60;60.00;;;21.67;40.17;101137.28;5010229;28;20642;-70
2022/08/08 05:06:01;;;;;;;4.27;1.10;;;20.80;60.00;;;21.91;39.96;101133.78;5009630;28;20630;-69
2022/08/08 05:08:45;;;;;;;1.27;1.27;;;21.00;59.50;;;21.86;39.92;101130.78;5011645;28;20617;-69
2022/08/08 05:11:19;;;;;;;1.13;1.03;;;21.10;59.20;;;22.21;39.45;101143.63;5010625;28;21165;-69
2022/08/08 05:13:50;;;;;;;1.40;1.07;;;21.30;59.00;;;22.45;38.54;101138.16;4993084;28;20695;-69
2022/08/08 05:16:28;;;;;;;1.23;1.03;;;21.50;58.90;;;22.52;38.83;101139.13;4994758;28;20748;-69
2022/08/08 05:19:16;;;;;;;1.30;1.20;;;21.60;58.30;;;22.47;38.81;101140.69;5000921;28;20602;-69
2022/08/08 05:22:05;;;;;;;1.43;1.30;;;21.60;58.20;;;22.78;38.56;101145.00;5014066;28;20641;-71
2022/08/08 05:24:33;;;;;;;1.00;1.00;;;21.90;58.20;;;22.88;38.62;101145.56;5012657;28;21053;-70
2022/08/08 05:27:04;;;;;;;1.10;1.10;;;22.00;58.00;;;23.05;38.20;101147.09;4995773;28;20696;-70
2022/08/08 05:29:31;;;;;;;3.90;1.43;;;22.10;57.50;;;23.33;37.58;101151.91;5003652;28;20646;-69
2022/08/08 05:32:02;;;;;;;1.50;1.50;;;22.40;57.40;;;;;;5013855;28;20602;-70
2022/08/08 05:34:41;;;;;;;1.20;1.10;;;22.40;57.20;;;23.58;37.01;101164.81;5013909;28;20687;-69
2022/08/08 05:37:12;;;;;;;1.53;1.23;;;22.70;56.80;;;23.89;36.74;101164.66;5013390;28;21314;-69
2022/08/08 05:39:55;;;;;;;1.20;1.10;;;22.90;56.50;;;24.04;36.03;101159.31;5014006;28;20621;-70
2022/08/08 05:42:45;;;;;;;1.60;1.23;;;23.10;55.70;;;24.32;35.49;101163.81;4994653;28;20602;-70
2022/08/08 05:45:16;;;;;;;1.50;1.40;;;23.30;55.50;;;24.57;35.13;101165.16;4996053;28;20641;-70
2022/08/08 05:47:59;;;;;;;1.10;1.10;;;23.60;55.10;;;25.01;34.47;101173.03;4995662;28;20633;-72
2022/08/08 05:50:35;;;;;;;4.00;1.10;;;24.00;54.50;;;25.35;34.37;101169.63;4998213;28;21181;-69
2022/08/08 05:53:05;;;;;;;4.10;1.37;;;24.30;54.20;;;25.53;33.98;101170.03;5012638;28;20752;-69
2022/08/08 05:55:56;;;;;;;1.10;1.10;;;24.50;53.70;;;26.22;33.07;101173.53;5013356;28;21224;-70
2022/08/08 05:58:43;;;;;;;1.40;1.30;;;25.00;53.30;;;26.87;31.63;101181.84;4980544;28;20643;-70
2022/08/08 06:01:30;;;;;;;1.83;1.50;;;25.50;52.20;;;27.34;31.28;101177.34;4982338;28;20724;-70
2022/08/08 06:04:23;;;;;;;3.50;1.30;;;25.80;51.90;;;28.00;30.15;101184.34;5012627;28;20668;-69
2022/08/08 06:06:56;;;;;;;1.37;1.10;;;26.30;51.30;;;28.16;29.70;101185.72;5012255;28;20737;-70
2022/08/08 06:09:33;;;;;;;1.00;1.00;;;26.30;50.80;;;28.40;29.34;101188.53;5013566;28;20660;-69
2022/08/08 06:12:22;;;;;;;1.47;1.30;;;26.70;50.50;;;29.31;28.54;101196.28;5008093;28;20637;-70
2022/08/08 06:15:00;;;;;;;1.00;1.00;;;27.30;50.00;;;29.62;27.43;101199.72;4977789;28;20689;-69
2022/08/08 06:17:32;;;;;;;1.20;1.20;;;27.80;48.90;;;30.67;26.38;101197.78;4994064;28;20721;-69
2022/08/08 06:20:19;;;;;;;1.10;1.10;;;28.20;48.70;;;31.57;25.54;101208.22;4991482;28;20633;-68
2022/08/08 06:22:47;;;;;;;1.43;1.33;;;28.80;48.20;;;31.97;24.56;101202.97;5014694;28;20614;-69
2022/08/08 06:25:16;;;;;;;1.17;1.17;;;29.10;47.00;;;32.35;24.15;101205.94;5013578;28;20649;-71
2022/08/08 06:27:54;;;;;;;1.20;1.20;;;29.50;46.60;;;33.02;23.00;101207.00;5014308;28;20617;-71
2022/08/08 06:30:22;;;;;;;4.30;1.20;;;29.90;46.30;;;33.34;23.23;101215.38;5012119;28;20625;-71
2022/08/08 06:32:57;;;;;;;1.30;1.27;;;30.20;45.50;;;33.87;22.07;101225.69;5012272;28;20622;-67
2022/08/08 06:35:30;;;;;;;1.27;1.20;;;30.40;45.30;;;34.36;22.11;101222.06;5011628;28;20658;-70
2022/08/08 06:38:26;;;;;;;2.87;1.13;;;30.70;45.10;;;35.52;20.93;101217.84;4998998;28;20620;-70
2022/08/08 06:41:06;;;;;;;1.33;1.23;;;31.30;44.60;;;36.25;19.83;101223.19;4999482;28;21263;-70
2022/08/08 06:43:46;;;;;;;1.40;1.30;;;32.00;43.70;;;36.69;19.11;101234.50;4994126;28;20639;-69
2022/08/08 06:46:23;;;;;;;1.53;1.10;;;32.10;43.20;;;36.15;19.58;101227.75;5001997;28;20626;-69
2022/08/08 06:48:55;;;;;;;1.10;1.10;;;31.70;43.20;;;37.72;18.47;101222.31;5015579;28;20614;-67
2022/08/08 06:51:23;;;;;;;1.17;1.17;;;32.50;43.30;;;38.98;17.70;101235.47;5009913;28;20628;-69
2022/08/08 06:54:00;;;;;;;2.83;1.43;;;33.40;42.70;;;38.80;16.95;101234.22;5011542;28;20896;-70
2022/08/08 06:56:29;;;;;;;1.30;1.20;;;33.80;41.60;;;39.11;17.17;101234.81;5012299;28;20723;-70
2022/08/08 06:58:56;;;;;;;3.23;1.17;;;33.60;41.90;;;40.06;16.24;101240.53;5012386;28;20705;-70
2022/08/08 07:01:26;;;;;;;1.27;1.27;;;34.30;41.20;;;40.48;16.00;101237.00;5011422;28;20641;-70
2022/08/08 07:04:26;;;;;;;1.20;1.20;;;34.70;40.80;;;41.28;15.80;101240.47;5000931;28;20677;-68
2022/08/08 07:07:10;;;;;;;1.20;1.20;;;35.30;40.50;;;42.14;14.79;101237.00;4997951;28;20749;-69
2022/08/08 07:10:03;;;;;;;1.20;1.20;;;35.80;40.00;;;43.11;14.11;101249.06;5011695;28;20768;-69
2022/08/08 07:12:44;;;;;;;1.23;1.10;;;36.60;39.50;;;43.33;14.06;101252.94;5011904;28;20630;-71
2022/08/08 07:15:14;;;;;;;1.10;1.10;;;37.10;38.90;;;41.13;15.04;101255.19;5012029;28;20781;-71
2022/08/08 07:18:06;;;;;;;2.03;1.20;;;36.00;38.80;;;42.16;14.44;101246.53;4998094;28;20626;-70
2022/08/08 07:21:03;;;;;;;1.70;1.30;;;36.20;39.00;;;42.39;14.79;101255.66;5011837;28;20614;-72
2022/08/08 07:23:44;;;;;;;2.10;1.37;;;36.20;39.00;;;43.02;13.93;101261.13;4994327;28;20720;-70
2022/08/08 07:26:32;;;;;;;1.90;1.80;;;36.60;38.70;;;43.28;13.58;101256.63;4997219;28;20649;-70
2022/08/08 07:29:03;;;;;;;1.00;1.00;;;36.80;38.40;;;43.45;13.62;101261.44;5013061;28;20621;-69
2022/08/08 07:31:32;;;;;;;1.83;1.10;;;37.10;37.90;;;44.19;13.09;101255.03;5012289;28;20740;-70
2022/08/08 07:34:03;;;;;;;1.40;1.30;;;37.40;37.80;;;43.65;13.51;101252.69;4980320;28;20641;-73
2022/08/08 07:36:37;;;;;;;1.20;1.20;;;37.30;37.80;;;43.63;13.07;101261.22;5008353;28;21052;-69
2022/08/08 07:39:22;;;;;;;1.20;1.20;;;37.30;37.70;;;44.09;13.28;101247.03;4995227;28;20728;-70
2022/08/08 07:41:57;;;;;;;1.43;1.33;;;37.50;37.50;;;44.02;13.44;101254.94;5011032;28;20629;-72
2022/08/08 07:44:31;;;;;;;1.20;0.97;;;37.60;37.50;;;45.27;12.60;101253.03;4994734;28;20664;-69
2022/08/08 07:47:08;;;;;;;1.43;1.20;;;38.50;37.90;;;45.29;12.66;101252.69;5009637;28;20707;-67
2022/08/08 07:49:40;;;;;;;1.20;1.20;;;38.70;36.50;;;45.82;12.35;101254.97;5011199;28;20721;-67
2022/08/08 07:52:14;;;;;;;1.50;1.40;;;39.10;36.20;;;44.88;12.68;101250.44;5009937;28;20641;-69
2022/08/08 07:55:03;;;;;;;1.53;1.40;;;38.70;36.40;;;44.72;12.32;101257.56;4995987;28;20633;-68
2022/08/08 07:57:46;;;;;;;1.30;1.30;;;38.50;36.60;;;44.84;13.08;101266.00;5007441;28;20646;-70
2022/08/08 08:00:17;;;;;;;1.20;1.20;;;38.40;36.70;;;45.63;11.88;101266.41;4994651;28;21191;-66
2022/08/08 08:02:55;;;;;;;1.27;1.20;;;38.90;36.50;;;46.02;12.58;101268.88;4993654;28;20637;-67
2022/08/08 08:05:27;;;;;;;2.30;1.20;;;39.30;36.30;;;46.18;11.34;101262.75;4994041;28;20980;-67
2022/08/08 08:08:09;;;;;;;1.40;1.40;;;39.60;35.80;;;45.46;11.89;101260.09;4992515;28;21220;-65
2022/08/08 08:10:37;;;;;;;1.37;1.37;;;39.30;35.70;;;46.26;11.48;101259.16;5011329;28;20633;-65
2022/08/08 08:13:33;;;;;;;1.27;1.27;;;39.50;35.80;;;47.09;10.90;101268.31;5009669;28;20632;-66
2022/08/08 08:16:25;;;;;;;1.60;1.50;;;40.10;35.60;;;47.70;11.15;101277.56;5010861;28;20689;-69
2022/08/08 08:19:03;;;;;;;1.63;1.20;;;40.40;35.30;;;48.14;10.86;101280.28;5010728;28;21181;-68
2022/08/08 08:21:39;;;;;;;1.10;1.10;;;40.80;35.00;;;48.30;10.64;101275.63;4993344;28;20847;-68
2022/08/08 08:24:24;;;;;;;1.10;1.10;;;41.00;34.80;;;48.96;10.38;101269.75;4991280;28;20627;-70
2022/08/08 08:26:59;;;;;;;1.23;1.23;;;41.40;34.50;;;49.40;9.95;101276.13;4987362;28;20633;-65
2022/08/08 08:29:29;;;;;;;2.40;1.20;;;41.70;34.70;;;50.08;9.38;101269.16;5010487;28;20660;-66
2022/08/08 08:31:57;;;;;;;1.20;1.20;;;42.20;34.40;;;49.13;10.09;101263.91;5010649;28;20724;-68
2022/08/08 08:34:29;;;;;;;1.60;1.50;;;41.90;34.10;;;48.77;10.46;101261.25;4992799;28;20756;-66
2022/08/08 08:37:01;;;;;;;1.40;1.40;;;41.40;34.40;;;49.61;9.73;101263.63;5009426;28;20761;-66
2022/08/08 08:39:36;;;;;;;1.73;1.50;;;42.00;34.10;;;49.86;9.18;101260.72;5011266;28;20628;-67
2022/08/08 08:42:25;;;;;;;1.40;1.40;;;42.30;33.90;;;49.32;10.18;101260.47;5010545;28;20642;-66
2022/08/08 08:45:04;;;;;;;1.60;1.50;;;41.90;33.80;;;49.33;9.73;101267.59;5004464;28;20661;-67
2022/08/08 08:47:52;;;;;;;1.77;1.70;;;42.10;33.90;;;50.29;9.11;101269.69;5009526;28;21318;-67
2022/08/08 08:50:23;;;;;;;1.83;1.50;;;42.50;33.90;;;50.75;9.21;101262.38;5010675;28;21290;-67
2022/08/08 08:53:06;;;;;;;1.50;1.40;;;42.80;33.50;;;50.50;9.43;101265.75;5010289;28;20626;-68
2022/08/08 08:55:55;;;;;;;1.47;1.47;;;42.90;33.30;;;51.29;9.57;101262.25;5010360;28;20637;-68
2022/08/08 08:58:38;;;;;;;4.00;1.60;;;43.40;33.30;;;51.33;8.64;101267.88;4993328;28;20720;-65
2022/08/08 09:01:13;;;;;;;1.57;1.57;;;44.00;32.90;;;50.78;8.91;101256.06;4992695;28;20641;-67
2022/08/08 09:03:46;;;;;;;1.67;1.57;;;43.60;33.10;;;50.11;9.86;101257.34;5009910;28;21209;-69
2022/08/08 09:06:27;;;;;;;1.53;1.40;;;43.00;33.30;;;49.89;9.55;101257.19;5010031;28;20641;-67
2022/08/08 09:09:30;;;;;;;1.40;1.40;;;42.80;33.50;;;51.73;8.69;101260.66;5010720;28;20641;-67
2022/08/08 09:12:17;;;;;;;1.37;1.37;;;43.70;33.30;;;53.06;8.23;101268.47;4991395;28;20744;-70
2022/08/08 09:14:48;;;;;;;3.70;1.50;;;44.60;33.00;;;53.90;7.47;101263.72;5009706;28;20752;-67
2022/08/08 09:17:18;;;;;;;1.40;1.40;;;45.30;32.60;;;53.30;7.46;101254.81;4992754;28;20666;-67
2022/08/08 09:20:06;;;;;;;1.37;1.37;;;45.20;32.20;;;52.55;8.44;101265.50;4995777;28;21001;-67
2022/08/08 09:22:54;;;;;;;1.73;1.70;;;44.70;32.20;;;52.08;8.58;101268.78;4994536;28;20645;-65
2022/08/08 09:25:25;;;;;;;1.77;1.77;;;44.30;32.50;;;53.19;7.86;101256.72;4993154;28;20648;-66
2022/08/08 09:28:12;;;;;;;1.90;1.43;;;44.80;32.50;;;54.22;7.83;101252.78;5009454;28;20593;-67
2022/08/08 09:31:06;;;;;;;1.57;1.47;;;45.70;32.20;;;54.80;7.54;101257.44;4997349;28;20640;-68
2022/08/08 09:33:43;;;;;;;1.60;1.50;;;46.20;31.90;;;55.89;6.99;101265.97;5009094;28;20643;-67
2022/08/08 09:36:33;;;;;;;1.43;1.43;;;47.10;31.80;;;56.78;6.38;101268.06;5008758;28;21178;-67
2022/08/08 09:39:04;;;;;;;1.87;1.87;;;47.70;31.50;;;57.09;5.93;101254.28;5010090;28;20621;-68
2022/08/08 09:41:42;;;;;;;1.60;1.40;;;48.10;31.20;;;56.77;5.79;101248.88;4978933;28;20629;-67
2022/08/08 09:44:44;;;;;;;1.70;1.60;;;48.10;31.20;;;56.21;6.98;101247.06;5009541;28;20629;-68
2022/08/08 09:47:14;;;;;;;1.60;1.60;;;47.90;31.00;;;56.67;6.08;101250.53;5009384;28;21180;-68
2022/08/08 09:50:14;;;;;;;1.60;1.60;;;48.00;31.00;;;57.45;5.88;101248.03;5006234;28;20633;-67
2022/08/08 09:52:49;;;;;;;1.70;1.60;;;48.30;31.00;;;57.93;5.81;101242.34;5000522;28;20637;-67
2022/08/08 09:55:36;;;;;;;2.20;1.60;;;48.70;30.90;;;57.39;6.35;101240.44;4992437;28;20617;-68
2022/08/08 09:58:27;;;;;;;1.50;1.50;;;49.00;30.80;;;56.49;6.13;101241.38;5009784;28;20202;-68
2022/08/08 10:01:11;;;;;;;1.77;1.77;;;48.20;30.80;;;56.45;6.70;101237.81;4994851;28;20418;-66
2022/08/08 10:04:00;;;;;;;1.60;1.60;;;48.10;30.90;;;56.11;6.37;101237.50;5010914;28;20653;-67
2022/08/08 10:06:31;;;;;;;1.80;1.80;;;48.00;30.90;;;56.47;7.01;101228.97;5012392;28;21183;-66
2022/08/08 10:09:02;;;;;;;1.80;1.70;;;48.10;31.00;;;55.81;7.23;101228.78;5013348;28;21225;-67
2022/08/08 10:11:30;;;;;;;1.70;1.70;;;47.80;31.00;;;53.83;7.56;101226.59;5013161;28;20620;-68
2022/08/08 10:14:17;;;;;;;1.57;1.50;;;46.60;31.20;;;54.30;7.23;101222.88;5012196;28;20676;-67
2022/08/08 10:17:07;;;;;;;1.80;1.80;;;46.60;31.40;;;54.38;7.60;101224.50;5011215;23;20677;-67
2022/08/08 10:20:00;;;;;;;1.60;1.60;;;46.50;31.50;;;52.41;8.97;101204.00;5012834;28;21012;-67
2022/08/08 10:22:33;;;;;;;1.57;1.57;;;45.30;31.90;;;51.47;9.15;101204.97;5002928;28;20690;-66
2022/08/08 10:25:05;;;;;;;1.43;1.43;;;44.90;32.00;;;49.66;9.67;101207.91;4996463;28;20668;-66
2022/08/08 10:27:42;;;;;;;1.70;1.60;;;44.20;32.40;;;47.10;11.55;101196.13;4999416;28;21243;-66
2022/08/08 10:30:11;;;;;;;2.10;2.00;;;42.50;32.90;;;45.56;12.73;101191.66;4989859;28;20993;-66
2022/08/08 10:33:00;;;;;;;1.60;1.50;;;41.50;33.70;;;42.53;14.01;101181.59;4961200;28;20628;-68
2022/08/08 10:35:31;;;;;;;1.57;1.53;;;39.70;34.40;;;41.14;15.57;101180.19;4992631;28;20670;-67
2022/08/08 10:38:19;;;;;;;1.90;1.57;;;38.60;35.30;;;39.51;16.58;101174.41;4993209;28;20639;-66
2022/08/08 10:40:51;;;;;;;2.00;1.90;;;37.50;35.80;;;37.95;18.25;101172.72;4964964;28;20631;-68
2022/08/08 10:43:20;;;;;;;1.57;1.57;;;36.30;37.00;;;37.09;18.83;101163.88;4974350;28;21171;-66
2022/08/08 10:45:49;;;;;;;1.60;1.60;;;35.50;37.20;;;36.03;19.97;101170.13;4982007;28;20646;-66
2022/08/08 10:48:34;;;;;;;1.53;1.43;;;34.60;37.90;;;34.72;21.44;101158.25;4994068;28;21296;-67
2022/08/08 10:51:23;;;;;;;1.90;1.80;;;33.70;38.90;;;34.36;22.22;101165.16;4993846;28;20610;-68
2022/08/08 10:53:56;;;;;;;1.90;1.90;;;33.10;39.90;;;33.96;22.81;101175.47;4981499;28;20638;-69
2022/08/08 10:56:33;;;;;;;1.90;1.83;;;32.70;40.10;;;33.19;23.05;101169.97;4989262;28;21293;-68
2022/08/08 10:59:09;;;;;;;1.70;1.60;;;32.10;40.10;;;33.00;22.69;101165.06;4992723;28;21255;-68
2022/08/08 11:01:45;;;;;;;1.80;1.80;;;31.70;40.30;;;32.78;23.12;101156.81;4992126;28;20630;-69
2022/08/08 11:04:21;;;;;;;1.63;1.53;;;31.40;40.50;;;32.59;23.52;101160.78;4983464;28;20646;-69
2022/08/08 11:06:59;;;;;;;1.67;1.67;;;31.30;40.80;;;32.57;23.16;101155.63;4971704;28;21025;-68
2022/08/08 11:09:26;;;;;;;1.40;1.40;;;31.10;40.80;;;32.41;23.58;101161.78;4972573;28;20615;-68
2022/08/08 11:11:58;;;;;;;1.90;1.80;;;31.00;40.90;;;32.01;24.11;101159.06;4971789;28;20631;-68
2022/08/08 11:15:11;;;;;;;1.80;1.70;;;30.80;41.10;;;31.69;24.42;101160.47;4971912;28;20615;-68
2022/08/08 11:17:40;;;;;;;1.80;1.70;;;30.50;41.80;;;31.43;24.50;101162.84;4972670;28;20683;-68
2022/08/08 11:20:28;;;;;;;2.97;1.80;;;30.30;41.70;;;31.43;24.63;101158.28;4978588;28;21188;-68
2022/08/08 11:22:58;;;;;;;1.63;1.63;;;30.10;41.60;;;31.27;24.78;101158.94;4992428;28;20614;-67
2022/08/08 11:25:31;;;;;;;1.90;1.90;;;30.00;42.00;;;31.08;25.44;101152.81;4993630;28;21055;-67
2022/08/08 11:28:31;;;;;;;1.70;1.70;;;29.80;42.50;;;30.87;25.87;101152.53;4972446;28;21214;-68
2022/08/08 11:31:00;;;;;;;2.00;1.90;;;29.70;42.70;;;30.67;25.66;101145.53;4971329;28;20986;-67
2022/08/08 11:33:33;;;;;;;1.63;1.63;;;29.50;42.60;;;30.39;26.40;101145.31;4974357;28;20981;-68
2022/08/08 11:36:21;;;;;;;2.20;2.10;;;29.30;43.10;;;30.33;25.62;101143.53;4972536;28;20677;-67
2022/08/08 11:38:55;;;;;;;1.87;1.77;;;29.20;42.80;;;30.27;26.05;101147.09;4992194;28;20638;-68